createdAt,value
2024-01-12T00:00:35.001Z,79.24
2024-01-12T00:01:35.063Z,80.69
2024-01-12T00:02:35.237Z,79.29
2024-01-12T00:03:35.182Z,80.14
2024-01-12T00:04:35.235Z,78.42
2024-01-12T00:05:35.412Z,80.04
2024-01-12T00:06:35.384Z,79.66
2024-01-12T00:07:35.355Z,79.71
2024-01-12T00:08:35.470Z,79.07
2024-01-12T00:09:35.492Z,78.57
2024-01-12T00:10:35.525Z,80.12
2024-01-12T00:11:35.511Z,79.79
2024-01-12T00:12:35.531Z,80.21
2024-01-12T00:13:35.589Z,79.87
2024-01-12T00:14:35.654Z,79.77
2024-01-12T00:15:35.623Z,80.06
2024-01-12T00:16:35.615Z,80.21
2024-01-12T00:17:35.891Z,78.57
2024-01-12T00:18:35.935Z,81.12
2024-01-12T00:19:35.781Z,79.74
2024-01-12T00:20:35.907Z,79.52
2024-01-12T00:21:35.898Z,78.70
2024-01-12T00:22:35.914Z,80.41
2024-01-12T00:23:35.919Z,80.12
2024-01-12T00:24:35.976Z,81.39
2024-01-12T00:25:35.984Z,80.69
2024-01-12T00:26:36.061Z,80.59
2024-01-12T00:27:36.069Z,80.43
2024-01-12T00:28:36.108Z,80.80
2024-01-12T00:29:36.150Z,80.39
2024-01-12T00:30:36.210Z,80.92
2024-01-12T00:31:36.192Z,79.92
2024-01-12T00:32:36.280Z,81.29
2024-01-12T00:33:36.432Z,78.59
2024-01-12T00:34:36.356Z,79.65
2024-01-12T00:35:36.438Z,80.16
2024-01-12T00:36:36.412Z,81.33
2024-01-12T00:37:36.527Z,80.32
2024-01-12T00:38:36.609Z,80.24
2024-01-12T00:39:36.624Z,81.50
2024-01-12T00:40:36.654Z,80.16
2024-01-12T00:41:36.748Z,81.17
2024-01-12T00:42:36.805Z,80.06
2024-01-12T00:43:36.821Z,81.41
2024-01-12T00:44:36.898Z,80.65
2024-01-12T00:45:36.841Z,79.63
2024-01-12T00:46:36.868Z,81.81
2024-01-12T00:47:37.031Z,80.47
2024-01-12T00:48:37.048Z,79.26
2024-01-12T00:49:36.987Z,80.15
2024-01-12T00:50:37.077Z,82.96
2024-01-12T00:51:36.989Z,80.84
2024-01-12T00:52:37.056Z,81.94
2024-01-12T00:53:37.037Z,82.38
2024-01-12T00:54:37.125Z,81.75
2024-01-12T00:55:37.069Z,81.01
2024-01-12T00:56:37.162Z,80.08
2024-01-12T00:57:37.131Z,79.90
2024-01-12T00:58:37.132Z,81.52
2024-01-12T00:59:37.175Z,80.94
2024-01-12T01:00:37.096Z,81.02
2024-01-12T01:01:37.234Z,82.05
2024-01-12T01:02:37.169Z,80.03
2024-01-12T01:03:37.216Z,78.81
2024-01-12T01:04:37.171Z,80.49
2024-01-12T01:05:37.345Z,80.58
2024-01-12T01:06:37.216Z,81.62
2024-01-12T01:07:37.183Z,81.56
2024-01-12T01:08:37.295Z,81.83
2024-01-12T01:09:37.222Z,80.81
2024-01-12T01:10:37.201Z,79.93
2024-01-12T01:11:37.289Z,80.85
2024-01-12T01:12:37.233Z,81.93
2024-01-12T01:13:37.364Z,81.41
2024-01-12T01:14:37.275Z,81.80
2024-01-12T01:15:37.248Z,80.63
2024-01-12T01:16:37.257Z,79.80
2024-01-12T01:17:37.340Z,81.00
2024-01-12T01:18:37.878Z,79.71
2024-01-12T01:19:37.319Z,81.44
2024-01-12T01:20:37.320Z,81.91
2024-01-12T01:21:37.282Z,83.20
2024-01-12T01:22:37.279Z,81.62
2024-01-12T01:23:37.339Z,80.34
2024-01-12T01:24:37.314Z,80.10
2024-01-12T01:25:37.305Z,82.18
2024-01-12T01:26:37.421Z,80.93
2024-01-12T01:27:37.345Z,81.23
2024-01-12T01:28:37.343Z,81.96
2024-01-12T01:29:37.397Z,81.55
2024-01-12T01:30:37.461Z,78.01
2024-01-12T01:31:37.402Z,82.72
2024-01-12T01:32:37.597Z,81.73
2024-01-12T01:33:37.666Z,78.87
2024-01-12T01:34:37.664Z,81.53
2024-01-12T01:35:37.623Z,82.22
2024-01-12T01:36:37.543Z,81.53
2024-01-12T01:37:37.603Z,80.69
2024-01-12T01:38:37.692Z,81.82
2024-01-12T01:39:37.642Z,81.79
2024-01-12T01:40:37.672Z,81.99
2024-01-12T01:41:37.823Z,80.26
2024-01-12T01:42:37.774Z,80.58
2024-01-12T01:43:37.756Z,81.82
2024-01-12T01:44:37.789Z,80.70
2024-01-12T01:45:37.945Z,82.41
2024-01-12T01:46:37.831Z,82.56
2024-01-12T01:47:37.840Z,80.80
2024-01-12T01:48:37.885Z,81.26
2024-01-12T01:49:38.116Z,82.49
2024-01-12T01:50:38.045Z,81.51
2024-01-12T01:51:37.910Z,82.64
2024-01-12T01:52:37.969Z,80.88
2024-01-12T01:53:37.931Z,82.19
2024-01-12T01:54:37.926Z,81.38
2024-01-12T01:55:37.939Z,82.41
2024-01-12T01:56:37.958Z,82.09
2024-01-12T01:57:37.936Z,82.18
2024-01-12T01:58:38.460Z,81.03
2024-01-12T01:59:38.000Z,82.22
2024-01-12T02:00:38.012Z,82.91
2024-01-12T02:01:37.989Z,81.75
2024-01-12T02:02:38.072Z,81.02
2024-01-12T02:03:38.081Z,80.99
2024-01-12T02:04:38.040Z,81.93
2024-01-12T02:05:38.142Z,80.93
2024-01-12T02:06:38.153Z,80.27
2024-01-12T02:07:38.059Z,81.79
2024-01-12T02:08:38.202Z,81.64
2024-01-12T02:09:38.106Z,82.63
2024-01-12T02:10:38.099Z,83.15
2024-01-12T02:11:38.130Z,81.02
2024-01-12T02:12:38.102Z,82.21
2024-01-12T02:13:38.164Z,82.33
2024-01-12T02:14:38.214Z,82.70
2024-01-12T02:15:38.169Z,80.90
2024-01-12T02:16:38.187Z,83.51
2024-01-12T02:17:38.476Z,81.39
2024-01-12T02:18:38.300Z,83.27
2024-01-12T02:19:38.273Z,82.87
2024-01-12T02:20:38.232Z,81.65
2024-01-12T02:21:38.267Z,83.26
2024-01-12T02:22:38.212Z,82.42
2024-01-12T02:23:38.271Z,82.70
2024-01-12T02:24:38.248Z,84.41
2024-01-12T02:25:38.252Z,84.79
2024-01-12T02:26:38.332Z,81.07
2024-01-12T02:27:38.269Z,81.12
2024-01-12T02:28:38.289Z,83.55
2024-01-12T02:29:38.356Z,82.10
2024-01-12T02:30:38.315Z,83.64
2024-01-12T02:31:38.289Z,83.49
2024-01-12T02:32:38.348Z,82.21
2024-01-12T02:33:38.339Z,81.94
2024-01-12T02:34:38.354Z,82.98
2024-01-12T02:35:38.370Z,82.61
2024-01-12T02:36:38.361Z,83.54
2024-01-12T02:37:38.389Z,82.02
2024-01-12T02:38:38.427Z,81.45
2024-01-12T02:39:38.387Z,81.70
2024-01-12T02:40:38.392Z,80.84
2024-01-12T02:41:38.431Z,82.31
2024-01-12T02:42:38.421Z,82.93
2024-01-12T02:43:38.416Z,81.18
2024-01-12T02:44:38.443Z,82.83
2024-01-12T02:45:38.429Z,82.62
2024-01-12T02:46:38.485Z,80.84
2024-01-12T02:47:38.494Z,83.00
2024-01-12T02:48:38.554Z,83.56
2024-01-12T02:49:38.461Z,82.87
2024-01-12T02:50:38.547Z,84.92
2024-01-12T02:51:38.521Z,81.58
2024-01-12T02:52:38.539Z,84.15
2024-01-12T02:53:38.611Z,82.80
2024-01-12T02:54:38.556Z,84.77
2024-01-12T02:55:38.559Z,82.93
2024-01-12T02:56:38.674Z,83.83
2024-01-12T02:57:38.692Z,83.73
2024-01-12T02:58:38.740Z,83.32
2024-01-12T02:59:38.800Z,83.32
2024-01-12T03:00:38.724Z,82.62
2024-01-12T03:01:38.648Z,82.17
2024-01-12T03:02:38.761Z,80.79
2024-01-12T03:03:38.789Z,81.96
2024-01-12T03:04:38.727Z,80.61
2024-01-12T03:05:38.787Z,81.55
2024-01-12T03:06:39.000Z,79.80
2024-01-12T03:07:38.782Z,79.73
2024-01-12T03:08:38.977Z,80.36
2024-01-12T03:09:38.948Z,79.48
2024-01-12T03:10:38.884Z,79.91
2024-01-12T03:11:38.937Z,80.78
2024-01-12T03:12:38.904Z,79.71
2024-01-12T03:13:38.924Z,79.75
2024-01-12T03:14:38.984Z,81.56
2024-01-12T03:15:38.950Z,79.22
2024-01-12T03:16:38.975Z,79.81
2024-01-12T03:17:39.201Z,81.21
2024-01-12T03:18:39.108Z,81.51
2024-01-12T03:19:38.996Z,79.18
2024-01-12T03:20:39.084Z,79.39
2024-01-12T03:21:39.084Z,79.24
2024-01-12T03:22:39.101Z,77.93
2024-01-12T03:23:39.104Z,78.13
2024-01-12T03:24:39.154Z,78.45
2024-01-12T03:25:39.152Z,78.91
2024-01-12T03:26:39.373Z,79.16
2024-01-12T03:27:39.197Z,77.41
2024-01-12T03:28:39.232Z,79.95
2024-01-12T03:29:39.293Z,78.01
2024-01-12T03:30:39.337Z,78.11
2024-01-12T03:31:39.317Z,77.77
2024-01-12T03:32:39.443Z,75.90
2024-01-12T03:33:39.482Z,77.11
2024-01-12T03:34:39.406Z,78.62
2024-01-12T03:35:39.562Z,77.88
2024-01-12T03:36:39.499Z,77.95
2024-01-12T03:37:39.499Z,78.95
2024-01-12T03:38:39.580Z,75.89
2024-01-12T03:39:39.586Z,79.20
2024-01-12T03:40:39.570Z,76.49
2024-01-12T03:41:39.658Z,76.19
2024-01-12T03:42:39.627Z,77.97
2024-01-12T03:43:39.716Z,77.00
2024-01-12T03:44:39.731Z,75.00
2024-01-12T03:45:39.773Z,74.41
2024-01-12T03:46:39.795Z,77.25
2024-01-12T03:47:39.894Z,74.26
2024-01-12T03:48:40.028Z,75.11
2024-01-12T03:49:40.014Z,74.60
2024-01-12T03:50:40.020Z,74.66
2024-01-12T03:51:39.933Z,76.20
2024-01-12T03:52:40.015Z,74.43
2024-01-12T03:53:40.058Z,74.73
2024-01-12T03:54:40.124Z,74.81
2024-01-12T03:55:40.127Z,72.43
2024-01-12T03:56:40.155Z,74.71
2024-01-12T03:57:40.178Z,75.24
2024-01-12T03:58:40.218Z,73.66
2024-01-12T03:59:40.318Z,72.30
2024-01-12T04:00:40.269Z,74.70
2024-01-12T04:01:40.312Z,74.70
2024-01-12T04:02:40.477Z,72.79
2024-01-12T04:03:40.443Z,74.21
2024-01-12T04:04:40.453Z,71.88
2024-01-12T04:05:40.566Z,73.49
2024-01-12T04:06:40.615Z,72.38
2024-01-12T04:07:40.558Z,74.68
2024-01-12T04:08:40.691Z,71.38
2024-01-12T04:09:40.642Z,70.33
2024-01-12T04:10:40.633Z,71.65
2024-01-12T04:11:40.705Z,70.49
2024-01-12T04:12:40.693Z,72.52
2024-01-12T04:13:40.775Z,72.22
2024-01-12T04:14:40.975Z,70.44
2024-01-12T04:15:40.828Z,71.23
2024-01-12T04:16:40.886Z,70.04
2024-01-12T04:17:40.974Z,69.12
2024-01-12T04:18:41.184Z,71.76
2024-01-12T04:19:41.100Z,72.40
2024-01-12T04:20:41.031Z,69.85
2024-01-12T04:21:41.071Z,70.29
2024-01-12T04:22:41.088Z,69.37
2024-01-12T04:23:41.173Z,69.45
2024-01-12T04:24:41.198Z,69.23
2024-01-12T04:25:41.240Z,68.15
2024-01-12T04:26:41.371Z,68.49
2024-01-12T04:27:41.351Z,70.80
2024-01-12T04:28:41.381Z,68.07
2024-01-12T04:29:41.484Z,67.90
2024-01-12T04:30:41.493Z,70.41
2024-01-12T04:31:41.498Z,68.42
2024-01-12T04:32:41.644Z,66.86
2024-01-12T04:33:41.727Z,70.22
2024-01-12T04:34:41.694Z,66.84
2024-01-12T04:35:41.718Z,67.15
2024-01-12T04:36:41.691Z,69.15
2024-01-12T04:37:41.706Z,68.55
2024-01-12T04:38:41.805Z,67.07
2024-01-12T04:39:49.114Z,50.00
2024-01-12T04:40:49.060Z,50.00
2024-01-12T04:41:49.167Z,50.00
2024-01-12T04:42:49.095Z,50.00
2024-01-12T04:43:49.056Z,50.00
2024-01-12T04:44:49.096Z,51.56
2024-01-12T04:45:49.078Z,50.67
2024-01-12T04:46:49.082Z,52.71
2024-01-12T04:47:49.251Z,52.01
2024-01-12T04:48:49.164Z,53.19
2024-01-12T04:49:49.192Z,53.06
2024-01-12T04:50:49.202Z,50.91
2024-01-12T04:51:49.115Z,50.00
2024-01-12T04:52:49.098Z,53.36
2024-01-12T04:53:49.083Z,51.98
2024-01-12T04:54:49.091Z,51.69
2024-01-12T04:55:49.092Z,52.83
2024-01-12T04:56:49.121Z,51.91
2024-01-12T04:57:49.102Z,51.57
2024-01-12T04:58:49.112Z,51.77
2024-01-12T04:59:49.173Z,51.53
2024-01-12T05:00:49.145Z,50.32
2024-01-12T05:01:49.080Z,54.12
2024-01-12T05:02:49.105Z,52.48
2024-01-12T05:03:49.120Z,53.01
2024-01-12T05:04:49.103Z,52.20
2024-01-12T05:05:49.278Z,55.60
2024-01-12T05:06:49.147Z,55.48
2024-01-12T05:07:49.135Z,55.87
2024-01-12T05:08:49.180Z,56.90
2024-01-12T05:09:49.193Z,59.01
2024-01-12T05:10:49.212Z,59.17
2024-01-12T05:11:49.344Z,59.32
2024-01-12T05:12:49.323Z,58.67
2024-01-12T05:13:49.341Z,57.86
2024-01-12T05:14:49.414Z,57.17
2024-01-12T05:15:49.448Z,58.39
2024-01-12T05:16:49.501Z,58.90
2024-01-12T05:17:49.699Z,56.82
2024-01-12T05:18:49.698Z,57.35
2024-01-12T05:19:49.683Z,57.65
2024-01-12T05:20:49.705Z,58.14
2024-01-12T05:21:49.732Z,56.82
2024-01-12T05:22:49.799Z,57.40
2024-01-12T05:23:49.934Z,54.81
2024-01-12T05:24:49.964Z,54.40
2024-01-12T05:25:50.014Z,53.97
2024-01-12T05:26:50.127Z,54.09
2024-01-12T05:27:50.126Z,52.95
2024-01-12T05:28:50.232Z,53.70
2024-01-12T05:29:50.324Z,54.05
2024-01-12T05:30:50.459Z,53.69
2024-01-12T05:31:50.418Z,51.19
2024-01-12T05:32:50.520Z,50.00
2024-01-12T05:33:50.659Z,51.10
2024-01-12T05:34:50.651Z,51.10
2024-01-12T05:35:50.769Z,51.14
2024-01-12T05:36:50.754Z,52.01
2024-01-12T05:37:50.822Z,49.58
2024-01-12T05:38:50.936Z,50.75
2024-01-12T05:39:50.949Z,50.70
2024-01-12T05:40:51.074Z,50.00
2024-01-12T05:41:51.190Z,52.24
2024-01-12T05:42:51.131Z,50.00
2024-01-12T05:43:51.225Z,51.53
2024-01-12T05:44:51.321Z,50.00
2024-01-12T05:45:51.458Z,51.29
2024-01-12T05:46:51.452Z,51.79
2024-01-12T05:47:51.563Z,50.74
2024-01-12T05:48:51.792Z,52.37
2024-01-12T05:49:51.689Z,50.51
2024-01-12T05:50:51.790Z,50.95
2024-01-12T05:51:51.729Z,52.37
2024-01-12T05:52:51.838Z,51.08
2024-01-12T05:53:51.910Z,51.25
2024-01-12T05:54:51.897Z,51.01
2024-01-12T05:55:52.024Z,50.07
2024-01-12T05:56:52.135Z,51.19
2024-01-12T05:57:52.095Z,51.83
2024-01-12T05:58:52.186Z,53.34
2024-01-12T05:59:52.275Z,53.54
2024-01-12T06:00:52.360Z,50.19
2024-01-12T06:01:52.399Z,51.97
2024-01-12T06:02:52.533Z,50.57
2024-01-12T06:03:52.566Z,52.22
2024-01-12T06:04:52.605Z,50.00
2024-01-12T06:05:52.823Z,51.40
2024-01-12T06:06:52.757Z,52.58
2024-01-12T06:07:52.758Z,50.97
2024-01-12T06:08:52.901Z,50.16
2024-01-12T06:09:52.936Z,51.15
2024-01-12T06:10:52.977Z,51.36
2024-01-12T06:11:53.062Z,51.42
2024-01-12T06:12:53.126Z,50.19
2024-01-12T06:13:53.166Z,53.24
2024-01-12T06:14:53.292Z,50.74
2024-01-12T06:15:54.505Z,51.73
2024-01-12T06:16:53.528Z,51.77
2024-01-12T06:17:53.659Z,52.03
2024-01-12T06:18:53.847Z,53.67
2024-01-12T06:19:53.842Z,52.25
2024-01-12T06:20:53.930Z,52.23
2024-01-12T06:21:53.838Z,53.69
2024-01-12T06:22:53.888Z,54.68
2024-01-12T06:23:54.032Z,54.62
2024-01-12T06:24:54.026Z,52.31
2024-01-12T06:25:54.122Z,53.27
2024-01-12T06:26:54.250Z,53.27
2024-01-12T06:27:54.252Z,53.43
2024-01-12T06:28:54.330Z,53.39
2024-01-12T06:29:54.505Z,51.17
2024-01-12T06:30:54.468Z,52.22
2024-01-12T06:31:54.522Z,55.42
2024-01-12T06:32:54.652Z,62.64
2024-01-12T06:33:54.708Z,71.69
2024-01-12T06:34:54.625Z,73.97
2024-01-12T06:35:54.706Z,80.01
2024-01-12T06:36:54.695Z,83.69
2024-01-12T06:37:54.712Z,84.06
2024-01-12T06:38:56.798Z,82.60
2024-01-12T06:39:54.769Z,84.13
2024-01-12T06:40:54.908Z,83.39
2024-01-12T06:41:54.828Z,83.36
2024-01-12T06:42:54.788Z,83.44
2024-01-12T06:43:54.827Z,82.92
2024-01-12T06:44:54.846Z,84.72
2024-01-12T06:45:54.882Z,80.97
2024-01-12T06:46:54.883Z,83.31
2024-01-12T06:47:55.368Z,87.31
2024-01-12T06:48:55.337Z,87.99
2024-01-12T06:49:54.897Z,86.43
2024-01-12T06:50:55.046Z,84.53
2024-01-12T06:51:55.016Z,82.48
2024-01-12T06:52:55.309Z,80.82
2024-01-12T06:53:55.383Z,82.18
2024-01-12T06:54:57.668Z,78.91
2024-01-12T06:55:55.315Z,77.51
2024-01-12T06:56:55.378Z,79.44
2024-01-12T06:57:55.802Z,81.40
2024-01-12T06:58:55.377Z,79.20
2024-01-12T06:59:55.386Z,80.87
2024-01-12T07:00:55.911Z,79.72
2024-01-12T07:01:55.383Z,80.63
2024-01-12T07:02:55.515Z,80.21
2024-01-12T07:03:55.526Z,81.19
2024-01-12T07:04:55.528Z,83.39
2024-01-12T07:05:57.523Z,81.33
2024-01-12T07:06:55.649Z,81.69
2024-01-12T07:07:55.806Z,81.68
2024-01-12T07:08:55.735Z,80.59
2024-01-12T07:09:56.628Z,82.47
2024-01-12T07:10:55.889Z,83.03
2024-01-12T07:11:57.534Z,83.81
2024-01-12T07:12:55.623Z,80.84
2024-01-12T07:13:55.665Z,78.96
2024-01-12T07:14:55.881Z,82.56
2024-01-12T07:15:55.604Z,82.08
2024-01-12T07:16:56.690Z,82.48
2024-01-12T07:17:55.766Z,82.16
2024-01-12T07:18:55.867Z,81.82
2024-01-12T07:20:00.955Z,83.47
2024-01-12T07:20:55.724Z,83.51
2024-01-12T07:21:55.728Z,83.91
2024-01-12T07:22:55.961Z,84.06
2024-01-12T07:23:55.867Z,85.62
2024-01-12T07:24:55.875Z,84.55
2024-01-12T07:25:56.312Z,84.29
2024-01-12T07:26:56.154Z,82.70
2024-01-12T07:27:56.356Z,82.62
2024-01-12T07:28:56.320Z,81.12
2024-01-12T07:29:56.263Z,83.26
2024-01-12T07:30:56.364Z,80.69
2024-01-12T07:31:56.312Z,80.79
2024-01-12T07:32:56.737Z,80.92
2024-01-12T07:33:57.712Z,82.38
2024-01-12T07:34:56.743Z,76.98
2024-01-12T07:35:56.601Z,73.17
2024-01-12T07:36:57.585Z,76.71
2024-01-12T07:37:56.764Z,76.08
2024-01-12T07:38:56.862Z,78.10
2024-01-12T07:39:56.754Z,81.90
2024-01-12T07:40:57.355Z,81.13
2024-01-12T07:41:56.919Z,79.20
2024-01-12T07:42:56.958Z,77.37
2024-01-12T07:43:56.924Z,77.82
2024-01-12T07:44:58.047Z,73.88
2024-01-12T07:45:58.313Z,74.92
2024-01-12T07:46:57.062Z,72.59
2024-01-12T07:47:57.206Z,70.70
2024-01-12T07:48:57.301Z,69.01
2024-01-12T07:49:57.187Z,68.56
2024-01-12T07:50:57.180Z,68.27
2024-01-12T07:51:57.305Z,65.86
2024-01-12T07:52:57.186Z,66.59
2024-01-12T07:53:57.250Z,66.50
2024-01-12T07:54:57.513Z,66.72
2024-01-12T07:56:07.943Z,65.11
2024-01-12T07:56:57.413Z,65.22
2024-01-12T07:57:57.266Z,65.35
2024-01-12T07:58:57.819Z,66.71
2024-01-12T07:59:57.329Z,68.77
2024-01-12T08:00:57.216Z,69.12
2024-01-12T08:01:57.312Z,71.93
2024-01-12T08:02:57.401Z,72.31
2024-01-12T08:03:57.274Z,72.55
2024-01-12T08:04:57.330Z,72.93
2024-01-12T08:05:57.354Z,73.86
2024-01-12T08:06:57.372Z,73.82
2024-01-12T08:07:57.339Z,73.09
2024-01-12T08:08:57.974Z,71.84
2024-01-12T08:09:57.461Z,74.91
2024-01-12T08:10:57.466Z,74.82
2024-01-12T08:11:57.606Z,74.34
2024-01-12T08:12:58.289Z,74.60
2024-01-12T08:13:57.821Z,74.50
2024-01-12T08:14:57.761Z,76.75
2024-01-12T08:15:57.730Z,76.10
2024-01-12T08:16:57.797Z,75.44
2024-01-12T08:17:57.897Z,75.93
2024-01-12T08:18:58.354Z,79.99
2024-01-12T08:19:57.948Z,78.45
2024-01-12T08:20:58.008Z,79.54
2024-01-12T08:22:02.781Z,78.83
2024-01-12T08:22:58.400Z,78.96
2024-01-12T08:23:58.057Z,79.30
2024-01-12T08:24:58.010Z,80.28
2024-01-12T08:25:58.832Z,83.26
2024-01-12T08:26:58.039Z,86.49
2024-01-12T08:27:57.990Z,87.87
2024-01-12T08:28:57.989Z,88.61
2024-01-12T08:29:58.402Z,87.74
2024-01-12T08:30:58.874Z,86.96
2024-01-12T08:31:58.349Z,87.84
2024-01-12T08:32:58.144Z,93.40
2024-01-12T08:33:58.279Z,110.07
2024-01-12T08:34:57.992Z,123.12
2024-01-12T08:35:57.998Z,139.22
2024-01-12T08:36:57.989Z,132.52
2024-01-12T08:37:58.001Z,123.91
2024-01-12T08:38:58.039Z,118.72
2024-01-12T08:39:58.003Z,111.90
2024-01-12T08:40:58.325Z,106.21
2024-01-12T08:41:58.152Z,102.46
2024-01-12T08:42:58.013Z,98.46
2024-01-12T08:43:57.976Z,94.21
2024-01-12T08:44:58.187Z,91.56
2024-01-12T08:45:57.955Z,88.15
2024-01-12T08:46:58.342Z,86.28
2024-01-12T08:47:58.019Z,85.09
2024-01-12T08:48:58.249Z,84.69
2024-01-12T08:49:58.194Z,85.54
2024-01-12T08:50:58.066Z,82.78
2024-01-12T08:51:58.339Z,82.92
2024-01-12T08:52:58.022Z,80.35
2024-01-12T08:53:58.090Z,78.49
2024-01-12T08:54:58.061Z,77.63
2024-01-12T08:55:58.406Z,77.50
2024-01-12T08:56:58.070Z,80.51
2024-01-12T08:57:58.029Z,78.94
2024-01-12T08:58:58.019Z,78.35
2024-01-12T08:59:58.039Z,76.79
2024-01-12T09:00:58.506Z,78.24
2024-01-12T09:01:58.272Z,77.48
2024-01-12T09:02:59.516Z,77.75
2024-01-12T09:03:59.973Z,77.55
2024-01-12T09:04:58.290Z,76.37
2024-01-12T09:05:58.566Z,75.65
2024-01-12T09:06:58.255Z,76.03
2024-01-12T09:08:01.366Z,76.71
2024-01-12T09:08:58.214Z,76.86
2024-01-12T09:09:58.167Z,76.92
2024-01-12T09:10:58.190Z,76.29
2024-01-12T09:11:58.221Z,75.54
2024-01-12T09:12:58.200Z,75.44
2024-01-12T09:13:58.161Z,76.02
2024-01-12T09:14:58.492Z,74.58
2024-01-12T09:15:59.109Z,75.91
2024-01-12T09:16:58.371Z,75.44
2024-01-12T09:17:58.224Z,73.65
2024-01-12T09:18:58.297Z,72.77
2024-01-12T09:19:58.258Z,75.88
2024-01-12T09:20:58.194Z,74.41
2024-01-12T09:21:58.213Z,83.72
2024-01-12T09:22:58.403Z,97.16
2024-01-12T09:23:58.215Z,98.77
2024-01-12T09:24:58.210Z,107.08
2024-01-12T09:25:58.322Z,108.28
2024-01-12T09:26:58.282Z,104.96
2024-01-12T09:27:58.194Z,104.68
2024-01-12T09:28:58.331Z,105.41
2024-01-12T09:29:58.265Z,107.00
2024-01-12T09:30:58.254Z,111.16
2024-01-12T09:31:58.222Z,116.68
2024-01-12T09:32:58.323Z,117.03
2024-01-12T09:33:58.395Z,118.88
2024-01-12T09:34:58.193Z,121.06
2024-01-12T09:35:58.232Z,121.69
2024-01-12T09:36:58.167Z,121.46
2024-01-12T09:37:58.217Z,117.08
2024-01-12T09:38:58.220Z,114.70
2024-01-12T09:39:58.193Z,114.02
2024-01-12T09:40:58.194Z,114.33
2024-01-12T09:41:58.224Z,112.34
2024-01-12T09:42:58.245Z,100.95
2024-01-12T09:43:58.402Z,86.89
2024-01-12T09:45:58.234Z,69.69
2024-01-12T09:46:58.218Z,65.23
2024-01-12T09:47:58.295Z,61.85
2024-01-12T09:48:58.290Z,62.04
2024-01-12T09:49:58.456Z,54.62
2024-01-12T09:50:58.216Z,50.00
2024-01-12T09:51:58.180Z,49.15
2024-01-12T09:52:58.283Z,49.58
2024-01-12T09:53:58.322Z,50.00
2024-01-12T09:54:58.389Z,53.27
2024-01-12T09:56:06.600Z,50.00
2024-01-12T09:56:59.431Z,50.05
2024-01-12T09:57:58.460Z,50.12
2024-01-12T09:58:58.428Z,50.09
2024-01-12T09:59:58.506Z,50.36
2024-01-12T10:01:00.795Z,51.67
2024-01-12T10:01:58.952Z,53.15
2024-01-12T10:02:58.419Z,51.80
2024-01-12T10:03:58.621Z,51.33
2024-01-12T10:04:58.383Z,53.58
2024-01-12T10:05:58.578Z,52.16
2024-01-12T10:06:58.401Z,51.28
2024-01-12T10:07:58.907Z,55.10
2024-01-12T10:08:58.410Z,54.68
2024-01-12T10:09:58.517Z,57.59
2024-01-12T10:10:58.529Z,56.64
2024-01-12T10:11:58.489Z,56.99
2024-01-12T10:12:58.961Z,58.06
2024-01-12T10:13:58.568Z,56.86
2024-01-12T10:14:58.407Z,59.40
2024-01-12T10:15:58.555Z,58.57
2024-01-12T10:16:58.380Z,58.26
2024-01-12T10:17:58.632Z,62.66
2024-01-12T10:18:58.665Z,62.23
2024-01-12T10:19:58.451Z,65.75
2024-01-12T10:20:58.618Z,65.88
2024-01-12T10:21:58.408Z,65.74
2024-01-12T10:22:58.400Z,69.06
2024-01-12T10:23:58.517Z,68.73
2024-01-12T10:24:58.437Z,70.73
2024-01-12T10:25:58.958Z,72.18
2024-01-12T10:26:58.434Z,71.79
2024-01-12T10:27:58.402Z,76.96
2024-01-12T10:29:00.210Z,75.82
2024-01-12T10:29:58.542Z,76.31
2024-01-12T10:31:00.046Z,77.74
2024-01-12T10:31:58.374Z,78.96
2024-01-12T10:32:58.540Z,78.28
2024-01-12T10:33:58.665Z,76.14
2024-01-12T10:34:58.425Z,78.30
2024-01-12T10:35:58.536Z,89.52
2024-01-12T10:36:58.491Z,98.52
2024-01-12T10:37:58.416Z,109.99
2024-01-12T10:38:58.406Z,115.26
2024-01-12T10:39:58.514Z,116.39
2024-01-12T10:40:58.940Z,110.30
2024-01-12T10:41:58.707Z,106.32
2024-01-12T10:42:58.913Z,101.80
2024-01-12T10:43:58.686Z,102.71
2024-01-12T10:44:58.831Z,101.14
2024-01-12T10:45:58.834Z,101.86
2024-01-12T10:46:59.384Z,98.78
2024-01-12T10:47:58.993Z,98.18
2024-01-12T10:49:06.111Z,97.12
2024-01-12T10:49:59.058Z,97.15
2024-01-12T10:50:59.031Z,96.71
2024-01-12T10:52:03.447Z,96.04
2024-01-12T10:52:58.982Z,96.54
2024-01-12T10:53:59.011Z,95.02
2024-01-12T10:54:58.927Z,93.30
2024-01-12T10:55:59.461Z,92.93
2024-01-12T10:56:59.056Z,93.24
2024-01-12T10:57:58.937Z,91.77
2024-01-12T10:58:59.030Z,93.00
2024-01-12T10:59:59.114Z,90.42
2024-01-12T11:00:58.982Z,91.68
2024-01-12T11:01:59.448Z,90.75
2024-01-12T11:02:59.066Z,91.96
2024-01-12T11:03:59.001Z,89.36
2024-01-12T11:04:58.988Z,88.90
2024-01-12T11:05:59.029Z,89.64
2024-01-12T11:07:00.216Z,88.23
2024-01-12T11:08:00.125Z,88.28
2024-01-12T11:09:00.083Z,89.40
2024-01-12T11:10:00.883Z,87.23
2024-01-12T11:10:59.451Z,87.33
2024-01-12T11:11:59.075Z,88.99
2024-01-12T11:13:00.982Z,87.76
2024-01-12T11:14:00.448Z,87.84
2024-01-12T11:14:59.559Z,88.20
2024-01-12T11:15:58.990Z,88.41
2024-01-12T11:16:59.087Z,89.30
2024-01-12T11:17:59.180Z,90.09
2024-01-12T11:19:02.827Z,90.40
2024-01-12T11:20:00.968Z,90.42
2024-01-12T11:20:59.574Z,90.76
2024-01-12T11:21:59.004Z,90.90
2024-01-12T11:22:58.978Z,92.24
2024-01-12T11:23:59.464Z,93.08
2024-01-12T11:24:59.079Z,92.88
2024-01-12T11:25:59.007Z,94.51
2024-01-12T11:26:59.076Z,93.24
2024-01-12T11:27:59.016Z,90.69
2024-01-12T11:28:59.431Z,90.55
2024-01-12T11:29:59.100Z,92.36
2024-01-12T11:30:59.133Z,92.57
2024-01-12T11:31:59.112Z,97.27
2024-01-12T11:32:59.591Z,98.08
2024-01-12T11:33:59.152Z,101.49
2024-01-12T11:34:59.090Z,101.94
2024-01-12T11:35:59.028Z,102.78
2024-01-12T11:36:59.012Z,102.16
2024-01-12T11:37:59.444Z,103.39
2024-01-12T11:38:59.070Z,102.45
2024-01-12T11:39:59.459Z,104.18
2024-01-12T11:40:59.074Z,103.80
2024-01-12T11:41:59.170Z,103.90
2024-01-12T11:42:59.080Z,104.42
2024-01-12T11:43:59.037Z,103.79
2024-01-12T11:44:59.059Z,103.47
2024-01-12T11:46:00.004Z,103.28
2024-01-12T11:46:59.045Z,101.95
2024-01-12T11:47:59.206Z,101.54
2024-01-12T11:48:59.264Z,100.93
2024-01-12T11:49:59.213Z,100.80
2024-01-12T11:50:59.450Z,100.41
2024-01-12T11:51:59.427Z,100.01
2024-01-12T11:52:59.157Z,101.17
2024-01-12T11:54:00.568Z,98.82
2024-01-12T11:54:59.110Z,99.53
2024-01-12T11:55:59.534Z,98.89
2024-01-12T11:56:59.242Z,98.22
2024-01-12T11:58:00.612Z,98.03
2024-01-12T11:58:59.248Z,96.41
2024-01-12T11:59:59.365Z,96.63
2024-01-12T12:00:59.534Z,96.03
2024-01-12T12:01:59.360Z,94.74
2024-01-12T12:02:59.371Z,93.62
2024-01-12T12:03:59.292Z,93.02
2024-01-12T12:04:59.335Z,94.04
2024-01-12T12:06:01.146Z,91.62
2024-01-12T12:06:59.576Z,92.80
2024-01-12T12:07:59.499Z,91.52
2024-01-12T12:08:59.446Z,89.51
2024-01-12T12:09:59.458Z,90.22
2024-01-12T12:10:59.965Z,89.43
2024-01-12T12:11:59.508Z,87.25
2024-01-12T12:12:59.540Z,85.74
2024-01-12T12:13:59.539Z,84.57
2024-01-12T12:14:59.735Z,84.06
2024-01-12T12:15:59.984Z,83.33
2024-01-12T12:16:59.681Z,83.08
2024-01-12T12:18:00.017Z,82.89
2024-01-12T12:18:59.811Z,83.04
2024-01-12T12:19:59.956Z,83.68
2024-01-12T12:20:59.994Z,81.51
2024-01-12T12:21:59.838Z,81.30
2024-01-12T12:22:59.844Z,81.63
2024-01-12T12:24:00.580Z,81.17
2024-01-12T12:24:59.839Z,79.29
2024-01-12T12:25:59.844Z,79.80
2024-01-12T12:26:59.928Z,81.33
2024-01-12T12:27:59.948Z,80.74
2024-01-12T12:28:59.905Z,79.31
2024-01-12T12:30:00.043Z,79.11
2024-01-12T12:31:00.049Z,77.36
2024-01-12T12:32:00.009Z,77.78
2024-01-12T12:33:00.329Z,77.33
2024-01-12T12:34:00.275Z,77.57
2024-01-12T12:35:00.138Z,77.06
2024-01-12T12:36:00.310Z,76.21
2024-01-12T12:37:00.146Z,77.76
2024-01-12T12:38:00.172Z,76.16
2024-01-12T12:39:00.239Z,75.37
2024-01-12T12:40:00.284Z,76.06
2024-01-12T12:41:00.242Z,75.92
2024-01-12T12:42:00.344Z,74.10
2024-01-12T12:43:00.249Z,75.54
2024-01-12T12:44:00.298Z,75.25
2024-01-12T12:45:01.114Z,76.26
2024-01-12T12:46:00.323Z,75.76
2024-01-12T12:47:00.392Z,73.91
2024-01-12T12:48:00.551Z,74.52
2024-01-12T12:49:00.615Z,75.79
2024-01-12T12:50:00.596Z,73.80
2024-01-12T12:51:00.630Z,74.89
2024-01-12T12:52:00.516Z,73.86